IRA408 OIII-OITL
Flight info
| Callsign | IRA408 |
|---|---|
| Flight time | N/A |
| Altitude | 30000 |
| Route | PAROT W161 RST A416 GIVTA |
| Aircraft | B735/M-SDFHIW/S |
Departure
| Time | 2026-05-07 19:09 |
|---|---|
| Airport | Mehrabad International Airport (OIII) |
Arrival
| Time | N/A |
|---|---|
| Airport | Ardabil Airport (OITL) |
| Time | Latitude | Longitude | Altitude | Speed | Heading |
|---|---|---|---|---|---|
| 2026-05-07 18:40 | 35.68754 | 51.32882 | 3841 ft | 0 kts | 199° |
| 2026-05-07 18:41 | 35.68754 | 51.32883 | 3841 ft | 0 kts | 199° |
| 2026-05-07 18:53 | 35.68777 | 51.32891 | 3843 ft | 4 kts | 191° |
| 2026-05-07 18:53 | 35.68803 | 51.32892 | 3841 ft | 4 kts | 165° |
| 2026-05-07 18:53 | 35.68819 | 51.32877 | 3847 ft | 1 kts | 110° |
| 2026-05-07 18:54 | 35.68821 | 51.32872 | 3848 ft | 0 kts | 110° |
| 2026-05-07 19:02 | 35.68818 | 51.32881 | 3847 ft | 3 kts | 109° |
| 2026-05-07 19:02 | 35.68817 | 51.32884 | 3848 ft | 0 kts | 109° |
| 2026-05-07 19:03 | 35.68811 | 51.32905 | 3844 ft | 6 kts | 109° |
| 2026-05-07 19:03 | 35.68792 | 51.32965 | 3843 ft | 5 kts | 121° |
| 2026-05-07 19:04 | 35.68784 | 51.32971 | 3845 ft | 1 kts | 189° |
| 2026-05-07 19:04 | 35.68757 | 51.32960 | 3839 ft | 7 kts | 199° |
| 2026-05-07 19:04 | 35.68699 | 51.32955 | 3837 ft | 10 kts | 153° |
| 2026-05-07 19:04 | 35.68666 | 51.33034 | 3834 ft | 11 kts | 105° |
| 2026-05-07 19:05 | 35.68637 | 51.33122 | 3830 ft | 11 kts | 117° |
| 2026-05-07 19:05 | 35.68597 | 51.33216 | 3827 ft | 13 kts | 117° |
| 2026-05-07 19:05 | 35.68566 | 51.33312 | 3822 ft | 11 kts | 112° |
| 2026-05-07 19:05 | 35.68535 | 51.33404 | 3817 ft | 12 kts | 126° |
| 2026-05-07 19:06 | 35.68461 | 51.33421 | 3813 ft | 11 kts | 174° |
| 2026-05-07 19:06 | 35.68347 | 51.33430 | 3811 ft | 9 kts | 196° |
| 2026-05-07 19:06 | 35.68320 | 51.33420 | 3809 ft | 4 kts | 197° |
| 2026-05-07 19:07 | 35.68272 | 51.33402 | 3806 ft | 9 kts | 197° |
| 2026-05-07 19:07 | 35.68246 | 51.33382 | 3806 ft | 4 kts | 228° |
| 2026-05-07 19:07 | 35.68247 | 51.33350 | 3807 ft | 5 kts | 287° |
| 2026-05-07 19:07 | 35.68289 | 51.33185 | 3813 ft | 40 kts | 288° |
| 2026-05-07 19:08 | 35.68455 | 51.32653 | 3825 ft | 95 kts | 290° |
| 2026-05-07 19:08 | 35.68736 | 51.31643 | 3865 ft | 153 kts | 289° |
| 2026-05-07 19:08 | 35.69135 | 51.30202 | 4040 ft | 198 kts | 287° |
| 2026-05-07 19:08 | 35.69569 | 51.28439 | 4483 ft | 227 kts | 288° |
| 2026-05-07 19:09 | 35.70162 | 51.26603 | 5432 ft | 240 kts | 288° |
| 2026-05-07 19:09 | 35.70231 | 51.24422 | 5974 ft | 266 kts | 260° |
| 2026-05-07 19:09 | 35.70014 | 51.22227 | 7418 ft | 258 kts | 268° |
| 2026-05-07 19:09 | 35.70093 | 51.19991 | 8492 ft | 266 kts | 275° |
| 2026-05-07 19:10 | 35.70317 | 51.17718 | 9652 ft | 269 kts | 275° |
| 2026-05-07 19:10 | 35.70547 | 51.15413 | 10726 ft | 274 kts | 274° |
| 2026-05-07 19:10 | 35.70763 | 51.13015 | 11522 ft | 291 kts | 273° |
| 2026-05-07 19:10 | 35.70980 | 51.10449 | 12174 ft | 312 kts | 273° |
| 2026-05-07 19:11 | 35.71263 | 51.07736 | 12991 ft | 328 kts | 278° |
| 2026-05-07 19:11 | 35.72051 | 51.05066 | 13946 ft | 345 kts | 297° |
| 2026-05-07 19:11 | 35.73698 | 51.02836 | 15110 ft | 355 kts | 315° |
| 2026-05-07 19:11 | 35.75645 | 51.00914 | 16058 ft | 362 kts | 311° |
| 2026-05-07 19:12 | 35.77251 | 50.98527 | 16912 ft | 362 kts | 296° |
| 2026-05-07 19:12 | 35.78409 | 50.95807 | 18188 ft | 356 kts | 289° |
| 2026-05-07 19:12 | 35.79441 | 50.93020 | 19114 ft | 362 kts | 288° |
| 2026-05-07 19:12 | 35.80524 | 50.90189 | 19976 ft | 369 kts | 289° |
| 2026-05-07 19:13 | 35.81679 | 50.87346 | 20896 ft | 373 kts | 291° |
| 2026-05-07 19:13 | 35.82882 | 50.84467 | 21664 ft | 382 kts | 291° |
| 2026-05-07 19:13 | 35.84104 | 50.81545 | 22573 ft | 385 kts | 290° |
| 2026-05-07 19:13 | 35.85314 | 50.78631 | 23454 ft | 390 kts | 290° |
| 2026-05-07 19:14 | 35.86568 | 50.75593 | 24214 ft | 395 kts | 289° |
| 2026-05-07 19:14 | 35.87794 | 50.72626 | 25138 ft | 392 kts | 289° |
| 2026-05-07 19:14 | 35.89036 | 50.69618 | 25915 ft | 396 kts | 288° |
| 2026-05-07 19:14 | 35.90290 | 50.66565 | 26519 ft | 402 kts | 288° |
| 2026-05-07 19:15 | 35.91560 | 50.63482 | 27272 ft | 404 kts | 288° |
| 2026-05-07 19:15 | 35.92855 | 50.60368 | 27860 ft | 412 kts | 288° |
| 2026-05-07 19:15 | 35.94194 | 50.57217 | 28584 ft | 415 kts | 288° |
| 2026-05-07 19:15 | 35.95555 | 50.54069 | 29352 ft | 419 kts | 288° |
| 2026-05-07 19:16 | 35.96939 | 50.50871 | 29695 ft | 422 kts | 288° |
| 2026-05-07 19:16 | 35.98320 | 50.47686 | 29911 ft | 420 kts | 288° |
| 2026-05-07 19:16 | 36.01056 | 50.41348 | 29948 ft | 416 kts | 288° |
| 2026-05-07 19:17 | 36.03768 | 50.35042 | 29949 ft | 415 kts | 288° |
| 2026-05-07 19:17 | 36.06471 | 50.28742 | 29986 ft | 416 kts | 288° |
| 2026-05-07 19:18 | 36.09185 | 50.22428 | 29993 ft | 416 kts | 288° |
| 2026-05-07 19:18 | 36.11904 | 50.16106 | 29978 ft | 417 kts | 288° |
| 2026-05-07 19:19 | 36.14632 | 50.09754 | 29991 ft | 419 kts | 288° |
| 2026-05-07 19:19 | 36.17424 | 50.03423 | 30011 ft | 423 kts | 291° |
| 2026-05-07 19:20 | 36.19250 | 50.00493 | 29906 ft | 442 kts | 305° |
| 2026-05-07 19:20 | 36.21762 | 49.98229 | 30039 ft | 464 kts | 322° |
| 2026-05-07 19:20 | 36.24841 | 49.96753 | 30159 ft | 488 kts | 334° |
| 2026-05-07 19:20 | 36.28212 | 49.95861 | 29968 ft | 498 kts | 342° |
| 2026-05-07 19:21 | 36.34973 | 49.94420 | 30045 ft | 491 kts | 338° |
| 2026-05-07 19:21 | 36.41556 | 49.92341 | 30043 ft | 486 kts | 335° |
| 2026-05-07 19:22 | 36.48071 | 49.90147 | 30049 ft | 486 kts | 336° |
| 2026-05-07 19:22 | 36.54662 | 49.88072 | 30095 ft | 490 kts | 336° |
| 2026-05-07 19:23 | 36.61233 | 49.86010 | 30079 ft | 485 kts | 336° |
| 2026-05-07 19:23 | 36.67775 | 49.83949 | 30123 ft | 486 kts | 335° |
| 2026-05-07 19:24 | 36.74329 | 49.81828 | 30136 ft | 487 kts | 336° |
| 2026-05-07 19:24 | 36.80896 | 49.79761 | 30144 ft | 486 kts | 336° |
| 2026-05-07 19:25 | 36.87398 | 49.77696 | 30147 ft | 479 kts | 336° |
| 2026-05-07 19:25 | 36.93870 | 49.75611 | 30168 ft | 481 kts | 336° |
| 2026-05-07 19:26 | 37.00353 | 49.73529 | 30191 ft | 481 kts | 336° |
| 2026-05-07 19:26 | 37.06827 | 49.71440 | 30184 ft | 479 kts | 336° |
| 2026-05-07 19:27 | 37.13268 | 49.69355 | 30185 ft | 479 kts | 336° |
| 2026-05-07 19:27 | 37.19729 | 49.67274 | 30211 ft | 478 kts | 337° |
| 2026-05-07 19:28 | 37.26170 | 49.65201 | 30208 ft | 477 kts | 336° |
| 2026-05-07 19:28 | 37.32488 | 49.62837 | 30249 ft | 465 kts | 327° |
| 2026-05-07 19:29 | 37.35246 | 49.60849 | 30155 ft | 450 kts | 313° |
| 2026-05-07 19:29 | 37.37413 | 49.58226 | 30231 ft | 431 kts | 302° |
| 2026-05-07 19:29 | 37.41433 | 49.52529 | 30232 ft | 441 kts | 305° |
| 2026-05-07 19:30 | 37.45881 | 49.47203 | 30219 ft | 440 kts | 308° |
| 2026-05-07 19:30 | 37.50347 | 49.41933 | 30220 ft | 439 kts | 307° |
| 2026-05-07 19:31 | 37.54747 | 49.36588 | 30158 ft | 441 kts | 307° |
| 2026-05-07 19:31 | 37.56958 | 49.33893 | 29962 ft | 443 kts | 308° |
| 2026-05-07 19:31 | 37.59177 | 49.31208 | 29703 ft | 442 kts | 308° |
| 2026-05-07 19:32 | 37.61388 | 49.28539 | 29426 ft | 439 kts | 307° |
| 2026-05-07 19:32 | 37.63594 | 49.25867 | 29000 ft | 440 kts | 307° |
| 2026-05-07 19:32 | 37.65798 | 49.23193 | 28472 ft | 439 kts | 308° |
| 2026-05-07 19:32 | 37.67994 | 49.20534 | 27752 ft | 434 kts | 308° |
| 2026-05-07 19:33 | 37.70141 | 49.17915 | 26997 ft | 425 kts | 307° |
| 2026-05-07 19:33 | 37.72230 | 49.15296 | 26256 ft | 422 kts | 307° |
| 2026-05-07 19:33 | 37.74271 | 49.12689 | 25521 ft | 411 kts | 307° |
| 2026-05-07 19:33 | 37.76251 | 49.10148 | 24801 ft | 401 kts | 307° |
| 2026-05-07 19:34 | 37.78186 | 49.07668 | 24097 ft | 392 kts | 307° |
| 2026-05-07 19:34 | 37.80080 | 49.05247 | 23369 ft | 384 kts | 307° |
| 2026-05-07 19:34 | 37.81944 | 49.02867 | 22576 ft | 377 kts | 306° |
| 2026-05-07 19:34 | 37.83768 | 49.00537 | 21795 ft | 370 kts | 306° |
| 2026-05-07 19:35 | 37.85566 | 48.98240 | 21015 ft | 364 kts | 307° |
| 2026-05-07 19:35 | 37.87330 | 48.95986 | 20291 ft | 359 kts | 307° |
| 2026-05-07 19:35 | 37.89073 | 48.93759 | 19567 ft | 354 kts | 307° |
| 2026-05-07 19:35 | 37.90797 | 48.91554 | 18857 ft | 349 kts | 307° |
| 2026-05-07 19:36 | 37.92495 | 48.89382 | 18128 ft | 345 kts | 307° |
| 2026-05-07 19:36 | 37.94169 | 48.87229 | 17359 ft | 342 kts | 307° |
| 2026-05-07 19:36 | 37.95814 | 48.85125 | 16602 ft | 339 kts | 308° |
| 2026-05-07 19:36 | 37.97467 | 48.83015 | 15841 ft | 335 kts | 307° |
| 2026-05-07 19:37 | 37.98028 | 48.82282 | 15593 ft | 334 kts | 308° |